createdAt,value
2019-05-01T00:40:41.824Z,78.20
2019-05-01T00:43:10.327Z,78.30
2019-05-01T00:45:38.848Z,78.30
2019-05-01T00:48:07.348Z,78.50
2019-05-01T00:50:36.001Z,78.80
2019-05-01T00:53:06.718Z,79.00
2019-05-01T00:55:42.606Z,79.00
2019-05-01T00:58:18.895Z,79.10
2019-05-01T01:00:58.503Z,79.30
2019-05-01T01:03:27.029Z,79.40
2019-05-01T01:20:10.999Z,79.70
2019-05-01T01:22:39.637Z,79.80
2019-05-01T01:25:09.837Z,79.80
2019-05-01T01:27:38.463Z,80.00
2019-05-01T01:30:08.139Z,80.10
2019-05-01T01:32:37.971Z,80.20
2019-05-01T01:35:07.065Z,80.30
2019-05-01T01:37:35.548Z,80.30
2019-05-01T01:40:06.491Z,80.40
2019-05-01T01:42:35.377Z,81.40
2019-05-01T01:45:09.997Z,80.50
2019-05-01T01:47:40.112Z,80.60
2019-05-01T01:50:09.001Z,80.60
2019-05-01T01:52:37.598Z,80.80
2019-05-01T01:55:06.226Z,80.80
2019-05-01T01:57:34.823Z,80.70
2019-05-01T02:00:06.212Z,81.70
2019-05-01T02:02:42.155Z,81.00
2019-05-01T02:05:12.626Z,81.10
2019-05-01T02:07:41.809Z,80.90
2019-05-01T02:10:11.396Z,80.80
2019-05-01T02:12:40.878Z,80.90
2019-05-01T02:15:09.557Z,81.10
2019-05-01T02:17:38.011Z,81.40
2019-05-01T02:20:07.830Z,81.60
2019-05-01T02:22:37.602Z,81.60
2019-05-01T02:25:07.939Z,81.00
2019-05-01T02:27:38.065Z,81.80
2019-05-01T02:30:08.731Z,81.90
2019-05-01T02:32:38.014Z,82.20
2019-05-01T02:35:07.454Z,82.40
2019-05-01T02:37:37.246Z,82.70
2019-05-01T02:40:39.041Z,82.70
2019-05-01T02:43:10.335Z,83.00
2019-05-01T02:45:41.992Z,83.00
2019-05-01T02:48:11.415Z,83.20
2019-05-01T02:50:43.737Z,83.20
2019-05-01T02:53:12.654Z,83.30
2019-05-01T02:55:42.968Z,83.40
2019-05-01T02:58:13.391Z,83.40
2019-05-01T03:00:43.409Z,83.40
2019-05-01T03:03:12.429Z,83.50
2019-05-01T03:05:43.799Z,83.50
2019-05-01T03:08:13.640Z,83.50
2019-05-01T03:10:42.283Z,83.50
2019-05-01T03:13:13.223Z,83.50
2019-05-01T03:15:41.852Z,83.30
2019-05-01T03:18:11.925Z,83.50
2019-05-01T03:20:42.052Z,83.40
2019-05-01T03:23:15.080Z,83.30
2019-05-01T03:25:43.928Z,83.20
2019-05-01T03:28:14.243Z,83.20
2019-05-01T03:30:43.227Z,83.10
2019-05-01T03:33:12.066Z,83.00
2019-05-01T03:35:41.201Z,82.90
2019-05-01T03:38:09.893Z,82.90
2019-05-01T03:40:40.400Z,82.80
2019-05-01T03:43:08.956Z,82.80
2019-05-01T03:45:39.556Z,82.70
2019-05-01T03:48:08.687Z,82.70
2019-05-01T03:50:39.657Z,82.70
2019-05-01T03:53:08.428Z,82.70
2019-05-01T03:55:37.533Z,82.70
2019-05-01T03:58:08.589Z,82.60
2019-05-01T04:00:39.566Z,82.60
2019-05-01T04:03:18.789Z,82.70
2019-05-01T04:05:47.414Z,82.60
2019-05-01T04:08:17.910Z,82.30
2019-05-01T04:10:48.343Z,82.50
2019-05-01T04:13:18.199Z,82.50
2019-05-01T04:15:46.731Z,82.50
2019-05-01T04:18:16.404Z,82.40
2019-05-01T04:20:45.608Z,82.40
2019-05-01T04:23:16.257Z,82.30
2019-05-01T04:25:44.847Z,82.20
2019-05-01T04:28:32.093Z,82.10
2019-05-01T04:31:21.080Z,82.10
2019-05-01T04:33:54.625Z,81.90
2019-05-01T04:36:25.166Z,82.10
2019-05-01T04:38:53.793Z,81.90
2019-05-01T04:41:22.355Z,81.90
2019-05-01T04:43:52.537Z,81.70
2019-05-01T04:46:21.520Z,81.70
2019-05-01T04:48:50.311Z,81.60
2019-05-01T04:51:28.715Z,81.50
2019-05-01T04:53:58.701Z,81.40
2019-05-01T04:56:27.631Z,81.10
2019-05-01T04:58:56.516Z,81.00
2019-05-01T05:01:29.012Z,80.90
2019-05-01T05:03:58.689Z,80.70
2019-05-01T05:06:28.768Z,80.60
2019-05-01T05:08:58.467Z,80.50
2019-05-01T05:11:28.860Z,80.60
2019-05-01T05:14:07.834Z,80.30
2019-05-01T05:16:47.955Z,80.10
2019-05-01T05:19:18.515Z,80.00
2019-05-01T05:21:49.759Z,79.90
2019-05-01T05:24:19.556Z,79.70
2019-05-01T05:26:49.342Z,79.60
2019-05-01T05:29:19.907Z,79.30
2019-05-01T05:31:49.137Z,79.20
2019-05-01T05:34:20.351Z,78.80
2019-05-01T05:36:54.137Z,78.50
2019-05-01T05:39:29.944Z,78.40
2019-05-01T05:41:59.590Z,78.20
2019-05-01T05:44:29.766Z,78.00
2019-05-01T05:46:58.776Z,77.90
2019-05-01T05:49:27.528Z,77.50
2019-05-01T05:51:59.772Z,77.40
2019-05-01T05:54:33.337Z,77.20
2019-05-01T05:57:23.007Z,77.10
2019-05-01T06:00:01.708Z,77.00
2019-05-01T06:02:36.072Z,77.30
2019-05-01T06:05:07.152Z,76.30
2019-05-01T06:07:57.334Z,76.00
2019-05-01T06:10:29.485Z,75.80
2019-05-01T06:13:10.811Z,75.50
2019-05-01T06:15:43.815Z,75.30
2019-05-01T06:18:16.716Z,75.20
2019-05-01T06:20:49.560Z,75.00
2019-05-01T06:23:37.037Z,75.10
2019-05-01T06:26:25.621Z,74.70
2019-05-01T06:28:55.888Z,74.20
2019-05-01T06:31:27.172Z,74.10
2019-05-01T06:33:56.280Z,73.70
2019-05-01T06:36:25.001Z,73.40
2019-05-01T06:38:55.840Z,73.30
2019-05-01T06:41:28.746Z,73.10
2019-05-01T06:44:02.121Z,72.80
2019-05-01T06:46:35.381Z,72.50
2019-05-01T06:49:19.467Z,72.20
2019-05-01T06:51:53.931Z,71.90
2019-05-01T06:54:26.669Z,71.80
2019-05-01T06:56:56.959Z,71.50
2019-05-01T06:59:30.988Z,71.40
2019-05-01T07:01:58.650Z,70.90
2019-05-01T07:04:32.320Z,70.70
2019-05-01T07:07:06.829Z,70.70
2019-05-01T07:09:33.832Z,70.60
2019-05-01T07:12:06.100Z,70.20
2019-05-01T07:14:35.117Z,70.10
2019-05-01T07:17:03.719Z,70.00
2019-05-01T07:19:50.175Z,69.90
2019-05-01T07:22:19.482Z,69.70
2019-05-01T07:24:49.212Z,69.50
2019-05-01T07:27:18.794Z,70.20
2019-05-01T07:29:49.692Z,69.50
2019-05-01T07:32:21.408Z,69.40
2019-05-01T07:34:50.019Z,69.10
2019-05-01T07:37:20.797Z,68.90
2019-05-01T07:39:51.787Z,68.90
2019-05-01T07:42:29.237Z,68.80
2019-05-01T07:45:18.078Z,68.70
2019-05-01T07:47:48.775Z,68.20
2019-05-01T07:50:18.646Z,67.70
2019-05-01T07:52:52.077Z,67.30
2019-05-01T07:55:20.188Z,67.10
2019-05-01T07:57:49.282Z,66.90
2019-05-01T08:00:29.206Z,66.70
2019-05-01T08:02:57.666Z,66.50
2019-05-01T08:05:26.291Z,65.80
2019-05-01T08:07:54.827Z,65.30
2019-05-01T08:10:25.523Z,64.80
2019-05-01T08:12:55.430Z,64.70
2019-05-01T08:15:27.219Z,64.40
2019-05-01T08:17:56.910Z,63.80
2019-05-01T08:20:36.031Z,63.50
2019-05-01T08:23:07.597Z,63.40
2019-05-01T08:25:35.273Z,62.90
2019-05-01T08:28:08.844Z,62.70
2019-05-01T08:30:41.995Z,62.60
2019-05-01T08:33:28.562Z,62.40
2019-05-01T08:35:57.085Z,62.30
2019-05-01T08:38:25.550Z,61.90
2019-05-01T08:40:56.756Z,61.70
2019-05-01T08:43:24.215Z,61.60
2019-05-01T08:46:16.467Z,61.90
2019-05-01T08:48:55.238Z,61.90
2019-05-01T08:51:23.766Z,61.30
2019-05-01T08:53:57.857Z,61.00
2019-05-01T08:56:26.040Z,60.70
2019-05-01T08:58:55.623Z,60.60
2019-05-01T09:01:24.153Z,60.90
2019-05-01T09:03:55.730Z,59.30
2019-05-01T09:06:34.287Z,59.30
2019-05-01T09:08:54.500Z,58.70
2019-05-01T09:11:23.830Z,58.40
2019-05-01T09:13:54.581Z,58.10
2019-05-01T09:16:23.509Z,57.60
2019-05-01T09:18:52.672Z,57.30
2019-05-01T09:21:21.156Z,56.80
2019-05-01T09:23:51.391Z,56.50
2019-05-01T09:26:37.291Z,55.50
2019-05-01T09:29:11.094Z,54.90
2019-05-01T09:31:39.024Z,54.40
2019-05-01T09:34:09.441Z,54.60
2019-05-01T09:36:37.683Z,54.50
2019-05-01T09:39:06.804Z,54.20
2019-05-01T09:41:38.393Z,53.90
2019-05-01T09:44:10.805Z,53.90
2019-05-01T09:46:36.538Z,53.30
2019-05-01T09:49:07.766Z,52.80
2019-05-01T09:51:53.281Z,52.60
2019-05-01T09:54:29.393Z,52.80
2019-05-01T09:56:58.161Z,52.80
2019-05-01T09:59:26.803Z,52.40
2019-05-01T10:01:55.260Z,53.20
2019-05-01T10:04:25.307Z,52.20
2019-05-01T10:06:54.117Z,51.90
2019-05-01T10:09:22.847Z,51.90
2019-05-01T10:11:51.363Z,51.80
2019-05-01T10:14:20.270Z,51.20
2019-05-01T10:16:50.747Z,50.50
2019-05-01T10:19:19.994Z,50.90
2019-05-01T10:21:50.537Z,51.10
2019-05-01T10:24:19.008Z,51.00
2019-05-01T10:26:49.121Z,51.00
2019-05-01T10:29:36.011Z,51.10
2019-05-01T10:32:09.983Z,51.40
2019-05-01T10:34:50.409Z,51.00
2019-05-01T10:37:18.911Z,51.30
2019-05-01T10:39:50.198Z,51.30
2019-05-01T10:42:23.637Z,51.40
2019-05-01T10:44:53.646Z,51.40
2019-05-01T10:47:22.121Z,52.00
2019-05-01T10:49:51.335Z,52.10
2019-05-01T10:52:20.880Z,51.50
2019-05-01T10:54:49.629Z,52.10
2019-05-01T10:57:18.098Z,52.80
2019-05-01T10:59:46.547Z,52.60
2019-05-01T11:02:17.960Z,52.40
2019-05-01T11:04:46.433Z,52.00
2019-05-01T11:07:14.885Z,52.10
2019-05-01T11:09:45.838Z,52.50
2019-05-01T11:12:14.963Z,52.40
2019-05-01T11:14:43.483Z,52.50
2019-05-01T11:17:12.057Z,52.70
2019-05-01T11:19:40.644Z,53.00
2019-05-01T11:22:09.115Z,52.70
2019-05-01T11:24:37.619Z,52.60
2019-05-01T11:27:06.123Z,52.60
2019-05-01T11:29:34.789Z,52.90
2019-05-01T11:32:13.882Z,52.60
2019-05-01T11:35:00.216Z,52.60
2019-05-01T11:37:39.331Z,52.80
2019-05-01T11:40:10.623Z,52.60
2019-05-01T11:42:39.096Z,52.60
2019-05-01T11:45:09.664Z,52.00
2019-05-01T11:47:39.490Z,52.40
2019-05-01T11:50:08.409Z,52.90
2019-05-01T11:52:36.865Z,52.60
2019-05-01T11:55:06.682Z,52.80
2019-05-01T11:57:35.268Z,52.00
2019-05-01T12:00:10.442Z,51.70
2019-05-01T12:02:39.016Z,51.60
2019-05-01T12:05:07.613Z,51.40
2019-05-01T12:07:36.082Z,51.30
2019-05-01T12:10:07.018Z,51.60
2019-05-01T12:12:35.618Z,51.50
2019-05-01T12:15:07.483Z,51.50
2019-05-01T12:17:43.692Z,51.60
2019-05-01T12:20:13.744Z,50.80
2019-05-01T12:22:47.641Z,51.00
2019-05-01T12:25:15.605Z,51.20
2019-05-01T12:27:44.074Z,51.30
2019-05-01T12:30:15.246Z,51.20
2019-05-01T12:32:45.074Z,50.90
2019-05-01T12:35:13.718Z,50.90
2019-05-01T12:37:43.713Z,50.40
2019-05-01T12:40:16.155Z,50.30
2019-05-01T12:42:45.034Z,49.80
2019-05-01T12:45:15.593Z,49.70
2019-05-01T12:47:52.026Z,50.10
2019-05-01T12:50:23.665Z,49.70
2019-05-01T12:52:58.012Z,49.80
2019-05-01T12:55:44.772Z,49.70
2019-05-01T12:58:17.396Z,49.40
2019-05-01T13:00:55.751Z,49.30
2019-05-01T13:03:24.406Z,49.10
2019-05-01T13:05:53.035Z,49.30
2019-05-01T13:08:22.699Z,48.80
2019-05-01T13:10:53.027Z,48.50
2019-05-01T13:13:21.568Z,48.00
2019-05-01T13:15:50.154Z,47.80
2019-05-01T13:18:18.613Z,47.80
2019-05-01T13:20:49.170Z,48.10
2019-05-01T13:23:17.697Z,47.70
2019-05-01T13:25:47.416Z,47.40
2019-05-01T13:28:30.303Z,47.40
2019-05-01T13:31:03.840Z,47.30
2019-05-01T13:33:32.429Z,47.00
2019-05-01T13:36:00.979Z,47.60
2019-05-01T13:38:29.619Z,47.00
2019-05-01T13:40:58.347Z,46.80
2019-05-01T13:43:26.866Z,46.50
2019-05-01T13:45:55.475Z,46.40
2019-05-01T13:48:24.067Z,46.60
2019-05-01T13:50:56.281Z,46.70
2019-05-01T13:53:25.668Z,46.80
2019-05-01T13:55:55.233Z,46.80
2019-05-01T13:58:23.787Z,46.80
2019-05-01T14:00:52.415Z,46.00
2019-05-01T14:03:21.288Z,45.80
2019-05-01T14:05:49.752Z,45.00
2019-05-01T14:08:18.484Z,44.70
2019-05-01T14:10:47.028Z,44.60
2019-05-01T14:13:15.521Z,43.70
2019-05-01T14:15:44.013Z,43.30
2019-05-01T14:18:12.491Z,43.10
2019-05-01T14:20:55.184Z,42.30
2019-05-01T14:23:29.158Z,41.60
2019-05-01T14:26:05.235Z,41.40
2019-05-01T14:28:35.866Z,40.80
2019-05-01T14:31:06.229Z,40.60
2019-05-01T14:33:35.238Z,40.30
2019-05-01T14:36:04.546Z,39.60
2019-05-01T14:38:33.147Z,39.00
2019-05-01T14:41:03.038Z,38.60
2019-05-01T14:43:31.656Z,38.50
2019-05-01T14:46:00.178Z,39.00
2019-05-01T14:48:28.711Z,38.70
2019-05-01T14:50:57.343Z,38.20
2019-05-01T14:53:25.854Z,38.00
2019-05-01T14:55:55.004Z,38.20
2019-05-01T14:58:23.659Z,37.50
2019-05-01T15:00:52.232Z,36.80
2019-05-01T15:03:20.846Z,36.30
2019-05-01T15:08:42.673Z,36.70
2019-05-01T15:11:11.128Z,36.90
2019-05-01T15:13:41.289Z,37.10
2019-05-01T15:16:28.096Z,37.50
2019-05-01T15:19:10.735Z,37.50
2019-05-01T15:21:39.292Z,37.40
2019-05-01T15:24:07.859Z,37.40
2019-05-01T15:26:36.640Z,37.60
2019-05-01T15:29:05.320Z,37.30
2019-05-01T15:31:33.885Z,37.20
2019-05-01T15:34:02.410Z,37.20
2019-05-01T15:36:32.348Z,36.50
2019-05-01T15:39:01.804Z,36.00
2019-05-01T15:41:40.694Z,35.30
2019-05-01T15:44:16.944Z,35.10
2019-05-01T15:46:45.572Z,34.90
2019-05-01T15:49:14.188Z,34.70
2019-05-01T15:51:42.841Z,34.50
2019-05-01T15:54:11.592Z,33.90
2019-05-01T15:56:40.085Z,34.00
2019-05-01T15:59:08.578Z,33.90
2019-05-01T16:01:37.078Z,33.70
2019-05-01T16:04:05.597Z,33.50
2019-05-01T16:06:37.151Z,33.60
2019-05-01T16:09:07.411Z,34.10
2019-05-01T16:11:54.012Z,33.50
2019-05-01T16:14:22.655Z,32.90
2019-05-01T16:16:51.162Z,32.50
2019-05-01T16:19:20.329Z,32.70
2019-05-01T16:21:48.792Z,33.10
2019-05-01T16:24:18.025Z,33.00
2019-05-01T16:26:46.519Z,32.90
2019-05-01T16:29:15.759Z,33.20
2019-05-01T16:31:44.231Z,33.30
2019-05-01T16:34:12.711Z,33.40
2019-05-01T16:36:41.193Z,33.70
2019-05-01T16:39:15.099Z,33.60
2019-05-01T16:41:45.218Z,34.10
2019-05-01T16:44:13.752Z,34.40
2019-05-01T16:46:42.307Z,34.60
2019-05-01T16:49:10.847Z,35.10
2019-05-01T16:51:39.455Z,34.80
2019-05-01T16:54:08.714Z,34.90
2019-05-01T16:56:37.208Z,34.90
2019-05-01T16:59:06.375Z,35.10
2019-05-01T17:01:51.857Z,35.00
2019-05-01T17:04:32.272Z,34.50
2019-05-01T17:07:05.384Z,34.40
2019-05-01T17:09:44.439Z,34.10
2019-05-01T17:12:15.664Z,34.00
2019-05-01T17:14:44.147Z,33.70
2019-05-01T17:17:14.913Z,33.50
2019-05-01T17:19:43.378Z,33.40
2019-05-01T17:22:14.428Z,33.60
2019-05-01T17:24:42.067Z,33.80
2019-05-01T17:27:10.515Z,34.20
2019-05-01T17:29:40.550Z,34.80
2019-05-01T17:32:10.698Z,35.20
2019-05-01T17:34:40.731Z,35.60
2019-05-01T17:37:09.967Z,35.60
2019-05-01T17:39:38.503Z,35.90
2019-05-01T17:42:07.515Z,36.20
2019-05-01T17:44:36.051Z,36.20
2019-05-01T17:47:06.095Z,36.10
2019-05-01T17:49:34.687Z,36.70
2019-05-01T17:52:03.190Z,37.20
2019-05-01T17:54:31.681Z,37.60
2019-05-01T17:57:00.799Z,38.10
2019-05-01T17:59:29.416Z,38.70
2019-05-01T18:02:11.848Z,39.10
2019-05-01T18:04:45.042Z,39.60
2019-05-01T18:07:13.577Z,39.80
2019-05-01T18:10:01.729Z,40.60
2019-05-01T18:12:30.336Z,41.40
2019-05-01T18:14:58.831Z,41.80
2019-05-01T18:17:27.325Z,42.50
2019-05-01T18:19:55.851Z,43.50
2019-05-01T18:22:44.733Z,44.30
2019-05-01T18:25:20.977Z,45.20
2019-05-01T18:28:06.140Z,46.30
2019-05-01T18:30:39.163Z,47.00
2019-05-01T18:33:07.761Z,47.80
2019-05-01T18:35:37.899Z,48.50
2019-05-01T18:38:19.844Z,49.20
2019-05-01T18:40:50.644Z,49.80
2019-05-01T18:43:20.361Z,50.50
2019-05-01T18:45:51.353Z,51.10
2019-05-01T18:48:20.939Z,51.70
2019-05-01T18:50:55.064Z,52.30
2019-05-01T18:53:20.046Z,52.80
2019-05-01T18:55:48.649Z,53.40
2019-05-01T18:58:18.067Z,54.00
2019-05-01T19:00:46.638Z,54.60
2019-05-01T19:03:15.107Z,55.20
2019-05-01T19:05:46.949Z,55.50
2019-05-01T19:08:16.800Z,56.00
2019-05-01T19:10:45.728Z,56.10
2019-05-01T19:13:14.601Z,56.50
2019-05-01T19:15:43.132Z,56.80
2019-05-01T19:18:11.665Z,57.30
2019-05-01T19:20:40.180Z,57.80
2019-05-01T19:23:08.722Z,58.20
2019-05-01T19:25:39.385Z,58.70
2019-05-01T19:28:09.172Z,58.90
2019-05-01T19:30:38.144Z,59.30
2019-05-01T19:33:07.198Z,59.60
2019-05-01T19:35:35.881Z,59.90
2019-05-01T19:38:04.903Z,60.00
2019-05-01T19:40:34.754Z,60.40
2019-05-01T19:43:03.491Z,60.70
2019-05-01T19:45:32.123Z,61.10
2019-05-01T19:48:00.585Z,61.40
2019-05-01T19:50:29.116Z,61.60
2019-05-01T19:52:57.675Z,62.00
2019-05-01T19:55:26.312Z,62.40
2019-05-01T19:57:54.835Z,62.70
2019-05-01T20:00:35.438Z,62.90
2019-05-01T20:03:04.053Z,63.30
2019-05-01T20:05:32.582Z,63.30
2019-05-01T20:08:01.209Z,63.50
2019-05-01T20:10:31.284Z,63.80
2019-05-01T20:12:59.766Z,65.00
2019-05-01T20:15:29.123Z,64.00
2019-05-01T20:17:57.576Z,64.60
2019-05-01T20:20:26.074Z,64.90
2019-05-01T20:22:55.379Z,65.20
2019-05-01T20:25:24.223Z,65.40
2019-05-01T20:27:53.275Z,65.60
2019-05-01T20:30:22.465Z,65.70
2019-05-01T20:32:52.499Z,66.10
2019-05-01T20:35:23.802Z,66.30
2019-05-01T20:37:51.952Z,66.40
2019-05-01T20:40:20.460Z,66.60
2019-05-01T20:42:49.347Z,66.90
2019-05-01T20:45:19.525Z,67.10
2019-05-01T20:47:48.334Z,67.30
2019-05-01T20:50:17.234Z,67.50
2019-05-01T20:52:45.783Z,67.60
2019-05-01T20:55:14.229Z,67.90
2019-05-01T20:57:44.345Z,67.90
2019-05-01T21:00:16.670Z,68.30
2019-05-01T21:02:45.315Z,68.40
2019-05-01T21:05:24.483Z,68.70
2019-05-01T21:07:56.694Z,68.80
2019-05-01T21:10:29.861Z,69.00
2019-05-01T21:12:56.595Z,69.20
2019-05-01T21:15:25.164Z,69.30
2019-05-01T21:17:55.386Z,69.50
2019-05-01T21:20:24.952Z,69.60
2019-05-01T21:22:53.690Z,69.90
2019-05-01T21:25:23.982Z,70.00
2019-05-01T21:27:54.159Z,70.30
2019-05-01T21:30:23.711Z,70.50
2019-05-01T21:32:54.090Z,70.70
2019-05-01T21:35:23.940Z,70.80
2019-05-01T21:37:52.599Z,71.00
2019-05-01T21:40:22.944Z,71.10
2019-05-01T21:42:54.374Z,71.30
2019-05-01T21:45:22.998Z,71.40
2019-05-01T21:47:52.836Z,71.50
2019-05-01T21:50:22.803Z,71.70
2019-05-01T21:52:53.701Z,71.80
2019-05-01T21:55:25.802Z,71.90
2019-05-01T21:57:55.029Z,72.10
2019-05-01T22:00:26.063Z,72.30
2019-05-01T22:02:54.781Z,72.40
2019-05-01T22:05:23.351Z,72.50
2019-05-01T22:07:52.477Z,72.60
2019-05-01T22:10:21.513Z,72.70
2019-05-01T22:12:51.307Z,73.40
2019-05-01T22:15:21.528Z,72.50
2019-05-01T22:18:06.553Z,72.50
2019-05-01T22:20:46.066Z,72.50
2019-05-01T22:23:23.251Z,72.50
2019-05-01T22:25:53.404Z,72.50
2019-05-01T22:28:23.581Z,72.60
2019-05-01T22:31:16.720Z,72.70
2019-05-01T22:33:45.054Z,72.70
2019-05-01T22:36:13.505Z,72.70
2019-05-01T22:38:42.201Z,72.70
2019-05-01T22:41:12.097Z,72.70
2019-05-01T22:43:40.538Z,72.80
2019-05-01T22:46:10.725Z,72.80
2019-05-01T22:48:39.275Z,72.90
2019-05-01T22:51:09.435Z,73.00
2019-05-01T22:53:37.918Z,73.00
2019-05-01T22:56:06.372Z,73.00
2019-05-01T22:58:34.834Z,73.10
2019-05-01T23:01:03.355Z,73.20
2019-05-01T23:03:40.471Z,73.20
2019-05-01T23:06:06.252Z,73.30
2019-05-01T23:08:34.842Z,73.30
2019-05-01T23:11:03.610Z,73.20
2019-05-01T23:13:32.932Z,74.00
2019-05-01T23:16:01.752Z,73.30
2019-05-01T23:18:30.212Z,73.30
2019-05-01T23:20:58.684Z,73.40
2019-05-01T23:23:27.148Z,73.50
2019-05-01T23:25:55.596Z,73.60
2019-05-01T23:28:24.067Z,73.70
2019-05-01T23:30:52.795Z,73.60
2019-05-01T23:33:21.248Z,73.70
2019-05-01T23:35:49.703Z,73.80
2019-05-01T23:38:18.195Z,73.90
2019-05-01T23:40:51.094Z,74.00
2019-05-01T23:43:22.941Z,74.10
2019-05-01T23:45:49.546Z,74.10
2019-05-01T23:48:18.023Z,74.20
2019-05-01T23:50:46.508Z,74.10
2019-05-01T23:53:15.258Z,74.40
2019-05-01T23:55:43.890Z,74.40
2019-05-01T23:58:12.610Z,74.40
